Appleton, Minnesota
Current Conditions -  °F | °C
As of 10:54 PM on Sunday 21 Dec 2014 (Local Time) from KAQP Reporting Station
Overcast Overcast  
Wind Chill: 30°   Ceiling: 1500
Heat Index: 37°   Visibility: 7mi
Dew Point: 36°   Wind: 10mph
Humidity: 93%   Direction: 140°SE
Pressure: 29.57"   Gusts: 16mph
Location:  45.2°N, 96.02°W
Report Text: KAQP 220454Z AUTO 14009G14KT 7SM BKN015 OVC025 03/02 A2957 RMK AO2
Loading
Personal Weather Stations






























Interactive Weather Map New forecast layout! Learn more

10-Day Weather Forecast

Advertisements
Track Severe Weather on mobile